Waynesfield, Ohio
Current Conditions -  °F | °C
As of 2:53 AM on Friday 28 Nov 2014 (Local Time) from KAOH Reporting Station
Overcast Overcast  
Wind Chill: -10°   Ceiling: 2900
Heat Index: -4°   Visibility: 10mi
Dew Point: -7°   Wind: 13mph
Humidity: 78%   Direction: 280°W
Pressure: 30.34"   Gusts: NA
Location:  40.6°N, 83.98°W
Report Text: KAOH 280753Z AUTO 28011KT 10SM FEW016 OVC029 M04/M07 A3034 RMK AO2 SLP285 T10391072
Loading
Personal Weather Stations






























Interactive Weather Map New forecast layout! Learn more

10-Day Weather Forecast

Advertisements
Track Severe Weather on mobile